Airfield :
LOGIN :

Register | Disclaimer

   EN    FR    IT 

 










Legend :    VFR   Marginal VFR   IFR   Intensive IFR   Very Intensive IFR
Visi :
Ceiling :
>= 8 km
>= 3000ft
5 to 8 km
1000 to 3000 ft
1500m to 5 km
500 to 1000 ft
800 to 1500m
200 to 500 ft
< 800m
< 200 ft
Symbols :   Thunderstorms  Fog  Heavy snow  Heavy precipitations  Wind > 20 kt
SIGMETs :     Misc.  Thunderstorms  Icing  Turbulence  Mountain Waves  Volcanic Ashes






- Airport Elevation : 359 ft
- IATA code : BVA


LFOB - Beauvais

CURRENT METAR :
  • 310400Z AUTO 16005KT 9999 OVC036 13/10 Q1021 TEMPO 3000 BR

EXPIRED METARs :
  • 310330Z AUTO 16006KT 9999 OVC037 13/11 Q1021 TEMPO 3000 BR
  • 310300Z AUTO 17005KT 9999 OVC037 13/11 Q1022 NOSIG
  • 310230Z AUTO 17006KT 9999 OVC037 13/11 Q1022 NOSIG
  • 310200Z AUTO 18003KT 9999 OVC035 13/11 Q1022 NOSIG
  • 310130Z AUTO 17005KT 9999 OVC036 13/11 Q1022 NOSIG

TAF AMD TAF LFOB
Valid from the 31 at 01:00 until the 01 at 00:00 UTC


310108Z 3101/3124 18008KT 9999 BKN033
PROB30 3105/3109 3000 BR
BECMG 3112/3114 19015G27KT
TEMPO 3116/3119 4000 RA OVC013
FM311900 22010KT 9999 SCT015
TEMPO 3119/3124 BKN012
ATIS : +33 3 44 11 49 28



MET'MAP, your aeronautical weather chart ! - Copyright ORBIFLY December 2007 - Disclaimer

ORBIFLY MET'MAP TEAM :

Programming & Development : Alexandra Zaïnal
Concept & original design : Baudouin d'Aumeries
Assistance for programming : Marc-Olivier Méhu
Technical & hardware support : Manuel Goepfert

Contact : metmap@orbifly.com




SOURCES & CREDITS :

   NOAA